Fellows, California
Current Conditions -  °F | °C
As of 6:54 AM on Thursday 30 Oct 2014 (Local Time) from KBFL Reporting Station
Clear Clear  
Wind Chill: 59°   Ceiling: Unl
Heat Index: 59°   Visibility: 8mi
Dew Point: 42°   Wind: 0mph
Humidity: 53%   Direction: NA
Pressure: 29.97"   Gusts: NA
Location:  35.18°N, 119.54°W
Report Text: KBFL 301354Z 00000KT 8SM CLR 15/06 A2997 RMK AO2 SLP144 T01500056
Loading
Personal Weather Stations






























Interactive Weather Map
Tropical Storm Tracking
New forecast layout! Learn more

10-Day Weather Forecast

Advertisements
Track Severe Weather on mobile